Portada
METAR-TAF:

METAR-TAF

Aeropuertos :

Cognac, Francia

latitud: 45-40N, longitud: 000-19W, altitud: 30 m

Observación

El informe se hizo hace 32 minutos, a las 23:00 UTC
Viento 9 kt del este-noreste
Temperatura 9°C
Humedad 37%
Presión 1017 hPa
Visibilidad 10 km o más
sin nubes por debajo de 1500 m y sin presencia de cumulonimbus.

METAR: LFBG 312300Z AUTO 06009KT CAVOK 09/M05 Q1017 NOSIG

Hora: 01:32 (23:32 UTC)

Pronóstico

El informe se hizo hace 3 horas y 32 minutos, a las 20:00 UTC
Pronóstico válido del 31 a las 21 UTC al 01 a las 21 UTC
Viento 10 kt del noreste
Visibilidad 10 km o más
sin nubes por debajo de 1500 m y sin presencia de cumulonimbus.

TAF: LFBG 312000Z 3121/0121 05010KT CAVOK

Observaciones y pronósticos meteorológicos de más de 4000 aeropuertos (mensajes METAR y TAF).

Los puntos amarillos y rojos representan las estaciones disponibles.

Ponga el ratón en el punto deseado para ver el nombre de la estación.

Haga clic para ver las observaciones y los pronósticos meteorológicos.

Para cambiar el mapa : haga clic en los botones verdes con una cruz de color negro para hacer un zoom, en el botón verde con un guión para alejar o en las flechas verdes para mapas adyacentes.


METAR-TAF: